Карточка аэропорта UWKE

Внимание!
Информация на этой странице в стадии наполнения.
Если вы не увидели какой-то информации, или заметили неточность - пожалуйста сообщите нам!
Спасибо!
Команда RU-STAFF
Название аэропортаБегишево
Название аэропорта (англ.)Begishevo
Превышение643 ft. (196 m.)
Координаты55°33.882', 52°5.5500000000001'
Высота перехода700m
Эшелон переходаQFE>=742mm:FL040; QFE<742=>715:FL050; QFE<715:FL060
Коды ответчика1000
Зона ОрВДСамара РПИ (UWWW)
Данные METARUWKE 210630Z 24005MPS 9999 FEW033 M19/M21 Q1031 R21/810070 NOSIG RMK QFE756/1009
Проноз погоды (TAF)UWKE 210500Z 2106/2206 22003G08MPS 9999 BKN020 TEMPO 2106/2112 17003G10MPS 6000 -SN BKN003
NOTAMshow/hide NOTAM
AWOS   TABLE

Информация о ВПП

ВПП Длина ВПП (м.) Покрытие Курс ВПП Частота ILS
032502Асфальтобетон34 
212502Асфальтобетон214109.9

Диспетчерские позиции

Позывной Наименование органа УВД Частота
UWKE_R_APPБегишево-Круг127.900
UWKE_TWRБегишево-Вышка121.200



Спутниковое изображение